Hovedside
METAR-TAF:

METAR-TAF

Lufthavner :

Bergen, Norge

Bergen lufthavn

breddegrad: 60-17N, lengdegrad: 005-14E, høyde over havet: 5 m

Gjeldene værobservasjon

Denne rapporten ble laget for 24 minutter siden, klokken 04:20 UTC
Vind 7 kt fra Nord
Temperatur 1°C
Luftfuktighet 75%
Trykk 1001 hPa
Sikt 10 km eller mer
Få skyer i en høyde av 1500 ft, Bygeskyer.
Spredte skyer i en høyde av 9000 ft

METAR: ENBR 250420Z 36007KT 9999 FEW015CB SCT090 01/M03 Q1001 NOSIG RMK WIND 1200FT 36011KT

Tid: 06:44 (04:44 UTC)

Varsel

Varsel gyldig fra 25. klokken 00 UTC til 25. klokken 24 UTC
Vind 10 kt fra Nord
Sikt 10 km eller mer
Spredte skyer i en høyde av 1500 ft

TAF: ENBR 2500/2524 35010KT 9999 SCT015

Værobservasjoner og værvarsel for over 4000 flyplasser (METAR- og TAF-rapporter).

Tilgjengelige stasjoner er representert av de røde og gule prikkene på kartet.

Hold musepekeren over prikken for å se navnet på stasjonen.

Klikk så for å se værobservasjoner og -varsler.

For å forandre kartet kan du klikke på den grønne knappen med svart kryss for å zoome inn, på den grønne knappen med strek for å zoome ut, eller på de grønne pilene for å se tilstøtende kart.


METAR-TAF: